createdAt,value
2024-03-26T00:04:00.267Z,5.4
2024-03-26T00:09:06.389Z,4.7
2024-03-26T00:14:12.498Z,5.4
2024-03-26T00:19:18.595Z,5.1
2024-03-26T00:24:24.697Z,5.1
2024-03-26T00:29:30.840Z,5.7
2024-03-26T00:34:36.949Z,5.4
2024-03-26T00:39:43.056Z,5.4
2024-03-26T00:44:49.171Z,5.1
2024-03-26T00:49:55.278Z,5.4
2024-03-26T00:55:01.408Z,5.1
2024-03-26T01:00:07.509Z,5.4
2024-03-26T01:05:13.632Z,5.1
2024-03-26T01:10:18.758Z,5.1
2024-03-26T01:15:24.876Z,5.1
2024-03-26T01:20:30.993Z,5.1
2024-03-26T01:25:37.105Z,5.1
2024-03-26T01:30:43.218Z,5.1
2024-03-26T01:35:49.327Z,5.7
2024-03-26T01:40:55.440Z,4.7
2024-03-26T01:46:01.548Z,5.1
2024-03-26T01:51:07.675Z,4.7
2024-03-26T01:56:13.774Z,5.4
2024-03-26T02:01:19.884Z,4.7
2024-03-26T02:06:26.007Z,5.4
2024-03-26T02:11:32.130Z,5.1
2024-03-26T02:16:37.248Z,4.4
2024-03-26T02:21:43.357Z,5.7
2024-03-26T02:26:49.483Z,4.7
2024-03-26T02:31:55.586Z,4.4
2024-03-26T02:37:01.710Z,4.4
2024-03-26T02:42:07.824Z,5.4
2024-03-26T02:47:13.939Z,4.7
2024-03-26T02:52:20.035Z,4.7
2024-03-26T02:57:26.152Z,5.4
2024-03-26T03:02:32.278Z,4.7
2024-03-26T03:07:38.396Z,4.1
2024-03-26T03:12:44.509Z,4.7
2024-03-26T03:17:50.610Z,5.4
2024-03-26T03:22:55.775Z,4.1
2024-03-26T03:28:01.862Z,4.1
2024-03-26T03:33:07.988Z,5.1
2024-03-26T03:38:14.100Z,4.7
2024-03-26T03:43:20.226Z,4.7
2024-03-26T03:48:26.378Z,4.4
2024-03-26T03:53:32.436Z,4.7
2024-03-26T03:58:38.553Z,4.4
2024-03-26T04:03:44.673Z,4.1
2024-03-26T04:08:50.806Z,4.1
2024-03-26T04:13:56.916Z,4.7
2024-03-26T04:19:03.028Z,4.4
2024-03-26T04:24:09.144Z,4.4
2024-03-26T04:29:14.277Z,4.1
2024-03-26T04:34:20.393Z,4.4
2024-03-26T04:39:26.515Z,3.8
2024-03-26T04:44:32.625Z,4.4
2024-03-26T04:49:38.734Z,4.7
2024-03-26T04:54:44.855Z,3.8
2024-03-26T04:59:50.975Z,4.7
2024-03-26T05:04:57.088Z,4.7
2024-03-26T05:10:03.189Z,4.4
2024-03-26T05:15:09.307Z,3.8
2024-03-26T05:20:15.438Z,4.4
2024-03-26T05:25:21.545Z,3.8
2024-03-26T05:30:27.663Z,3.8
2024-03-26T05:35:32.836Z,4.1
2024-03-26T05:40:38.904Z,3.8
2024-03-26T05:45:45.020Z,4.1
2024-03-26T05:50:51.127Z,4.1
2024-03-26T05:55:57.385Z,3.4
2024-03-26T06:01:03.414Z,4.1
2024-03-26T06:06:09.471Z,3.8
2024-03-26T06:11:15.724Z,5.1
2024-03-26T06:16:21.856Z,3.8
2024-03-26T06:21:27.819Z,4.1
2024-03-26T06:26:33.932Z,4.1
2024-03-26T06:31:40.039Z,3.8
2024-03-26T06:36:46.165Z,3.8
2024-03-26T06:41:51.307Z,3.8
2024-03-26T06:46:57.417Z,4.1
2024-03-26T06:52:03.527Z,3.4
2024-03-26T06:57:09.865Z,4.1
2024-03-26T07:02:15.768Z,4.1
2024-03-26T07:07:21.937Z,4.1
2024-03-26T07:12:27.999Z,4.1
2024-03-26T07:17:34.087Z,3.8
2024-03-26T07:22:40.191Z,3.8
2024-03-26T07:27:46.414Z,3.8
2024-03-26T07:32:52.431Z,4.4
2024-03-26T07:37:58.598Z,4.1
2024-03-26T07:43:04.852Z,4.1
2024-03-26T07:48:10.112Z,4.4
2024-03-26T07:53:16.311Z,4.7
2024-03-26T07:58:22.338Z,3.8
2024-03-26T08:03:28.286Z,4.1
2024-03-26T08:08:34.597Z,4.4
2024-03-26T08:13:40.697Z,4.4
2024-03-26T08:18:46.659Z,4.4
2024-03-26T08:23:52.861Z,4.7
2024-03-26T08:28:58.726Z,4.4
2024-03-26T08:34:04.850Z,4.1
2024-03-26T08:39:10.967Z,3.8
2024-03-26T08:44:17.065Z,4.7
2024-03-26T08:49:23.235Z,4.4
2024-03-26T08:54:28.304Z,4.4
2024-03-26T08:59:34.549Z,4.1
2024-03-26T09:04:40.726Z,4.7
2024-03-26T09:09:46.890Z,4.4
2024-03-26T09:14:52.926Z,4.7
2024-03-26T09:19:58.968Z,4.4
2024-03-26T09:25:05.124Z,5.1
2024-03-26T09:30:11.089Z,4.7
2024-03-26T09:35:17.407Z,4.7
2024-03-26T09:40:23.609Z,4.7
2024-03-26T09:45:29.499Z,4.7
2024-03-26T09:50:35.612Z,4.4
2024-03-26T09:55:41.753Z,4.7
2024-03-26T10:00:46.915Z,5.1
2024-03-26T10:05:53.011Z,5.1
2024-03-26T10:10:59.090Z,5.1
2024-03-26T10:16:05.117Z,5.4
2024-03-26T10:21:11.236Z,5.1
2024-03-26T10:26:17.349Z,5.4
2024-03-26T10:31:23.465Z,5.1
2024-03-26T10:36:29.565Z,5.1
2024-03-26T10:41:35.872Z,5.1
2024-03-26T10:46:41.842Z,5.4
2024-03-26T10:51:48.144Z,5.7
2024-03-26T10:56:54.118Z,5.4
2024-03-26T11:02:00.294Z,5.4
2024-03-26T11:07:05.250Z,5.1
2024-03-26T11:12:11.373Z,6
2024-03-26T11:17:17.489Z,6
2024-03-26T11:22:23.596Z,5.4
2024-03-26T11:27:29.697Z,6.3
2024-03-26T11:32:35.797Z,5.4
2024-03-26T11:37:41.912Z,6.3
2024-03-26T11:42:48.014Z,5.7
2024-03-26T11:47:54.162Z,6.7
2024-03-26T11:53:00.238Z,6.3
2024-03-26T11:58:06.345Z,6.3
2024-03-26T12:03:12.454Z,6.7
2024-03-26T12:08:18.546Z,6.3
2024-03-26T12:13:23.672Z,6
2024-03-26T12:18:29.786Z,6.3
2024-03-26T12:23:35.943Z,7
2024-03-26T12:28:41.982Z,6.3
2024-03-26T12:33:48.259Z,6.7
2024-03-26T12:38:54.317Z,7
2024-03-26T12:43:59.316Z,7.6
2024-03-26T12:49:05.430Z,6.7
2024-03-26T12:54:11.556Z,6.7
2024-03-26T12:59:17.715Z,7.3
2024-03-26T13:04:23.865Z,7
2024-03-26T13:09:29.968Z,7.3
2024-03-26T13:14:36.009Z,7.3
2024-03-26T13:19:42.139Z,7.3
2024-03-26T13:24:48.279Z,7.3
2024-03-26T13:29:54.380Z,7.6
2024-03-26T13:35:00.409Z,7
2024-03-26T13:40:06.523Z,7.6
2024-03-26T13:45:12.620Z,7.6
2024-03-26T13:50:17.901Z,7
2024-03-26T13:55:23.880Z,7.6
2024-03-26T14:00:29.961Z,7.6
2024-03-26T14:05:36.098Z,7.6
2024-03-26T14:10:42.212Z,8
2024-03-26T14:15:48.325Z,7.3
2024-03-26T14:20:54.413Z,8
2024-03-26T14:26:00.528Z,8
2024-03-26T14:31:06.723Z,7.3
2024-03-26T14:36:12.806Z,7.6
2024-03-26T14:41:18.858Z,7.3
2024-03-26T14:46:25.037Z,7.3
2024-03-26T14:51:31.076Z,8
2024-03-26T14:56:36.426Z,7.6
2024-03-26T15:01:42.463Z,8.3
2024-03-26T15:06:48.459Z,8.3
2024-03-26T15:11:54.517Z,8
2024-03-26T15:17:00.631Z,8.3
2024-03-26T15:22:06.746Z,8.3
2024-03-26T15:27:12.958Z,8.6
2024-03-26T15:32:19.058Z,7.6
2024-03-26T15:37:25.067Z,8.6
2024-03-26T15:42:31.294Z,8.6
2024-03-26T15:47:37.289Z,8
2024-03-26T15:52:43.417Z,8
2024-03-26T15:57:49.522Z,8
2024-03-26T16:02:54.644Z,8.6
2024-03-26T16:08:00.765Z,8.3
2024-03-26T16:13:06.863Z,8.6
2024-03-26T16:18:12.984Z,8.6
2024-03-26T16:23:19.097Z,8.3
2024-03-26T16:28:25.202Z,8.6
2024-03-26T16:38:37.425Z,8.6
2024-03-26T16:43:43.544Z,8.6
2024-03-26T16:48:49.632Z,8
2024-03-26T16:53:55.765Z,8.6
2024-03-26T16:59:01.870Z,8.3
2024-03-26T17:04:07.989Z,8
2024-03-26T17:09:13.121Z,8
2024-03-26T17:14:19.194Z,8.6
2024-03-26T17:19:25.326Z,8.3
2024-03-26T17:24:31.446Z,8.3
2024-03-26T17:29:37.967Z,8.9
2024-03-26T17:34:43.896Z,8.9
2024-03-26T17:39:49.760Z,8.3
2024-03-26T17:44:55.895Z,8.3
2024-03-26T17:50:02.003Z,8
2024-03-26T17:55:08.111Z,8
2024-03-26T18:00:14.239Z,8
2024-03-26T18:05:20.344Z,8.3
2024-03-26T18:10:26.471Z,8.3
2024-03-26T18:15:31.610Z,7.6
2024-03-26T18:20:37.712Z,8
2024-03-26T18:25:43.828Z,8.3
2024-03-26T18:30:49.954Z,8
2024-03-26T18:35:56.064Z,8.3
2024-03-26T18:41:02.189Z,8
2024-03-26T18:46:08.302Z,8
2024-03-26T18:51:14.419Z,8
2024-03-26T18:56:20.525Z,8
2024-03-26T19:01:26.647Z,8
2024-03-26T19:06:32.767Z,8
2024-03-26T19:11:38.885Z,8.3
2024-03-26T19:16:44.997Z,8
2024-03-26T19:21:50.139Z,8.6
2024-03-26T19:26:56.254Z,7.6
2024-03-26T19:32:02.381Z,7.6
2024-03-26T19:37:08.487Z,8.3
2024-03-26T19:42:14.605Z,7.6
2024-03-26T19:47:20.724Z,8.3
2024-03-26T19:52:26.840Z,7.6
2024-03-26T19:57:32.953Z,7.6
2024-03-26T20:02:39.074Z,8
2024-03-26T20:07:45.201Z,7.6
2024-03-26T20:12:51.309Z,7.6
2024-03-26T20:17:57.438Z,7.3
2024-03-26T20:23:03.548Z,7.6
2024-03-26T20:28:08.681Z,7.6
2024-03-26T20:33:14.792Z,7
2024-03-26T20:38:20.920Z,7
2024-03-26T20:43:27.036Z,7.6
2024-03-26T20:48:33.155Z,7
2024-03-26T20:53:39.276Z,6.7
2024-03-26T20:58:45.388Z,7
2024-03-26T21:03:51.512Z,7
2024-03-26T21:08:57.631Z,7
2024-03-26T21:14:03.740Z,6.7
2024-03-26T21:19:10.261Z,7.3
2024-03-26T21:24:15.966Z,7.3
2024-03-26T21:29:22.088Z,7
2024-03-26T21:34:27.237Z,6.7
2024-03-26T21:39:33.349Z,7.6
2024-03-26T21:44:39.449Z,7
2024-03-26T21:49:45.562Z,6.7
2024-03-26T21:54:51.680Z,6.7
2024-03-26T21:59:57.822Z,6.7
2024-03-26T22:05:03.901Z,6.7
2024-03-26T22:10:10.040Z,6.7
2024-03-26T22:15:16.141Z,6.7
2024-03-26T22:20:22.263Z,6.7
2024-03-26T22:25:28.388Z,6.7
2024-03-26T22:30:34.485Z,7.3
2024-03-26T22:35:40.611Z,6.3
2024-03-26T22:40:45.722Z,7.3
2024-03-26T22:45:51.840Z,6.7
2024-03-26T22:50:57.966Z,7
2024-03-26T22:56:04.079Z,7
2024-03-26T23:01:10.180Z,7
2024-03-26T23:06:16.322Z,6
2024-03-26T23:11:22.424Z,6.3
2024-03-26T23:16:28.537Z,6.3
2024-03-26T23:21:34.663Z,7.3
2024-03-26T23:26:40.763Z,6
2024-03-26T23:31:46.886Z,6
2024-03-26T23:36:53.014Z,6.7
2024-03-26T23:41:59.113Z,6.7
2024-03-26T23:47:04.235Z,6
2024-03-26T23:52:10.366Z,6.3
2024-03-26T23:57:16.484Z,6.3
